Strona główna
METAR-TAF:

METAR-TAF

Lotnisko :

Port lotniczy Caracas

Caracas, Wenezuela

Szerokość geograficzna: 10-36N, Długość geograficzna: 066-59W, wysokość: 43 m

Aktualna obserwacja pogody

Raport powstał 50 minut temu, godzina 22:02 UTC
Wiatr 3 kt od północny wschód
Temperatura
Ciśnienie 1008 hPa

METAR: SVMI 292202Z AUTO 05003KT NCD ///// Q1008

czas: 18:52 (22:52 UTC)

Prognoza

Raport powstał 6 godziny i 52 minut temu, godzina 16:00 UTC
Prognoza ważna od 29 godzina 12 UTC do 30 godzina 12 UTC
Wiatr 4 kt od północ
Widzialność 10 km lub więcej
Rozproszone chmury na wysokości 1600 ft
Stopniowe zmiany
od 29 godzina 12 UTC do 29 godzina 16 UTC
Wiatr 2 kt od północny wschód
Widzialność: 9000 m
Przerywane chmury na wysokości 1600 ft
słaby mżawka

TAF: SVMI 291600Z 2912/3012 36004KT 9999 SCT016 TX34/2918Z TN24/2918Z BECMG 2912/2916 05002KT 9000 -DZ BKN016

Obserwacja i prognoza pogody dla ponad 4000 lotnisk (raport METAR i TAF).

Dostępne stacje oznaczono żółtymi i czerwonymi punktami na mapie.

Najedź kursorem aby zobaczyć nazwę stacji.

Kliknij aby zobaczyć obserwacje i prognozy pogody.

Aby zmienić mapę: kliknij na zielony przycisk z czarnym krzyżykiem, aby powiększyć; na zielony przycisk z myślnikiem, aby pomniejszyć; na zielone strzałki, aby przejść do map sąsiednich.


METAR-TAF: